Alice, Texas
Current Conditions -  °F | °C
As of 7:53 AM on Thursday 18 Dec 2014 (Local Time) from KALI Reporting Station
Haze Haze  
Wind Chill: 69°   Ceiling: 400
Heat Index: 69°   Visibility: 5mi
Dew Point: 66°   Wind: 3mph
Humidity: 90%   Direction: 20°NNE
Pressure: 30.04"   Gusts: NA
Location:  27.75°N, 98.06°W
Report Text: KALI 181353Z AUTO 02003KT 5SM BR BKN004 BKN009 OVC026 21/19 A3004 RMK AO2 SLP169 T02060189
Loading
Personal Weather Stations






























Interactive Weather Map New forecast layout! Learn more

10-Day Weather Forecast

Advertisements
Track Severe Weather on mobile